Huvudsida
METAR-TAF:

METAR-TAF

Flygplatser :

Kota Airport

Kota, Indien

latitud: 25-09-36N, longitud: 075-50-44E, höjd: 273 m

METAR: saknas

Tid: 11:59 (06:29 UTC)

Väderprognos

Denna rapport gjordes för 7 timmar och 29 minuter sedan, klockan 23:00 UTC
Prognos gäller från 24 kl. 00 UTC till 24 kl. 09 UTC
Vind 3 kt varierande vindriktning
Sikt: 4000 m
Få moln på en höjd av 10000 ft
torrdis
Blir
från 24 kl. 03 UTC till 24 kl. 05 UTC
Vind 8 kt från väst/nordväst
Sikt: 5000 m
torrdis,

TAF: VIKO 232300Z 2400/2409 VRB03KT 4000 HZ FEW100 BECMG 2403/2405 30008KT 5000 HZ

Aktuella väderrapporter och prognoser från 4000 flygplatser (METAR- och TAF-rapporter).

De tillgängliga stationerna syns som gula och röda prickar på kartan.

För musen över prickarna för att se namnen på stationerna.

Klicka sedan för att få väderrapporter och prognoser.

För att ändra kartan: Klicka på de gröna knapparna med ett svart kors på för att zooma in; den gröna knappen med ett streck på för att zooma ut; eller på de gröna pilarna för angränsande kartor.


METAR-TAF: